createdAt,value
2022-09-12T00:01:13.450Z,97832.03
2022-09-12T00:03:41.160Z,97829.09
2022-09-12T00:06:10.273Z,97825.31
2022-09-12T00:08:38.844Z,97822.88
2022-09-12T00:11:08.698Z,97825.59
2022-09-12T00:13:41.350Z,97825.88
2022-09-12T00:16:14.973Z,97822.66
2022-09-12T00:18:42.393Z,97821.03
2022-09-12T00:21:09.501Z,97815.44
2022-09-12T00:23:38.013Z,97819.22
2022-09-12T00:26:06.717Z,97807.59
2022-09-12T00:28:35.449Z,97807.50
2022-09-12T00:31:05.014Z,97815.84
2022-09-12T00:33:32.986Z,97809.63
2022-09-12T00:36:00.269Z,97816.59
2022-09-12T00:38:27.377Z,97813.97
2022-09-12T00:40:56.114Z,97807.94
2022-09-12T00:43:42.022Z,97811.78
2022-09-12T00:46:17.537Z,97804.16
2022-09-12T00:48:49.882Z,97806.56
2022-09-12T00:51:18.940Z,97804.44
2022-09-12T00:53:48.673Z,97807.72
2022-09-12T00:56:19.444Z,97805.84
2022-09-12T00:58:54.069Z,97803.44
2022-09-12T01:01:21.386Z,97804.00
2022-09-12T01:03:48.527Z,97797.78
2022-09-12T01:06:20.769Z,97800.50
2022-09-12T01:08:49.540Z,97794.59
2022-09-12T01:11:20.569Z,97797.00
2022-09-12T01:13:48.866Z,97792.97
2022-09-12T01:16:16.402Z,97792.78
2022-09-12T01:19:08.887Z,97794.66
2022-09-12T01:21:43.603Z,97801.00
2022-09-12T01:24:34.775Z,97794.50
2022-09-12T01:27:27.186Z,97785.28
2022-09-12T01:30:24.538Z,97785.28
2022-09-12T01:33:25.058Z,97790.47
2022-09-12T01:36:04.681Z,97786.06
2022-09-12T01:38:38.563Z,97783.69
2022-09-12T01:41:10.923Z,97791.59
2022-09-12T01:43:47.094Z,97796.19
2022-09-12T01:46:17.411Z,97792.38
2022-09-12T01:48:50.982Z,97788.38
2022-09-12T01:51:23.329Z,97782.97
2022-09-12T01:53:54.141Z,97777.53
2022-09-12T01:56:25.934Z,97774.00
2022-09-12T01:58:59.206Z,97778.63
2022-09-12T02:01:28.933Z,97778.13
2022-09-12T02:04:04.881Z,97784.66
2022-09-12T02:06:37.620Z,97783.59
2022-09-12T02:09:09.144Z,97775.81
2022-09-12T02:11:41.569Z,97773.28
2022-09-12T02:14:14.452Z,97779.75
2022-09-12T02:16:45.682Z,97764.09
2022-09-12T02:19:17.201Z,97767.59
2022-09-12T02:21:49.859Z,97767.88
2022-09-12T02:24:17.642Z,97760.69
2022-09-12T02:26:50.865Z,97756.69
2022-09-12T02:29:18.113Z,97761.81
2022-09-12T02:31:47.102Z,97762.88
2022-09-12T02:34:28.886Z,97761.59
2022-09-12T02:37:05.444Z,97755.06
2022-09-12T02:39:32.898Z,97761.38
2022-09-12T02:42:02.754Z,97755.66
2022-09-12T02:44:31.646Z,97755.66
2022-09-12T02:47:04.180Z,97750.53
2022-09-12T02:49:33.039Z,97752.47
2022-09-12T02:52:02.057Z,97756.84
2022-09-12T02:54:31.013Z,97745.72
2022-09-12T02:56:58.122Z,97744.13
2022-09-12T02:59:25.928Z,97749.81
2022-09-12T03:02:06.768Z,97752.53
2022-09-12T03:04:53.465Z,97747.63
2022-09-12T03:07:34.742Z,97751.06
2022-09-12T03:10:10.350Z,97747.91
2022-09-12T03:12:47.384Z,97747.13
2022-09-12T03:15:26.839Z,97753.03
2022-09-12T03:18:04.465Z,97747.34
2022-09-12T03:20:44.890Z,97744.03
2022-09-12T03:23:22.354Z,97748.06
2022-09-12T03:25:54.521Z,97747.53
2022-09-12T03:28:22.965Z,97745.41
2022-09-12T03:30:51.359Z,97749.25
2022-09-12T03:33:20.037Z,97748.41
2022-09-12T03:35:49.110Z,97750.31
2022-09-12T03:38:16.240Z,97749.25
2022-09-12T03:40:43.608Z,97743.09
2022-09-12T03:43:11.081Z,97753.63
2022-09-12T03:45:38.575Z,97755.81
2022-09-12T03:48:06.708Z,97751.22
2022-09-12T03:50:34.033Z,97755.00
2022-09-12T03:53:03.260Z,97759.63
2022-09-12T03:55:30.417Z,97752.59
2022-09-12T03:57:57.511Z,97754.44
2022-09-12T04:00:24.968Z,97748.22
2022-09-12T04:02:55.762Z,97755.22
2022-09-12T04:05:23.353Z,97756.03
2022-09-12T04:07:50.941Z,97753.03
2022-09-12T04:10:19.405Z,97753.81
2022-09-12T04:12:46.713Z,97749.25
2022-09-12T04:15:14.251Z,97746.31
2022-09-12T04:17:41.444Z,97755.75
2022-09-12T04:20:09.132Z,97749.53
2022-09-12T04:22:36.257Z,97754.44
2022-09-12T04:25:04.576Z,97755.00
2022-09-12T04:27:33.499Z,97755.22
2022-09-12T04:30:00.939Z,97752.81
2022-09-12T04:32:29.826Z,97751.50
2022-09-12T04:34:57.115Z,97748.00
2022-09-12T04:37:24.417Z,97745.00
2022-09-12T04:39:51.619Z,97744.19
2022-09-12T04:42:18.716Z,97753.44
2022-09-12T04:44:48.268Z,97750.41
2022-09-12T04:47:15.385Z,97740.63
2022-09-12T04:49:42.470Z,97747.63
2022-09-12T04:52:09.564Z,97745.00
2022-09-12T04:54:37.294Z,97751.22
2022-09-12T04:57:04.565Z,97746.09
2022-09-12T04:59:31.705Z,97758.84
2022-09-12T05:02:00.170Z,97757.44
2022-09-12T05:04:27.321Z,97750.09
2022-09-12T05:06:54.405Z,97755.53
2022-09-12T05:09:21.498Z,97765.25
2022-09-12T05:12:05.248Z,97760.72
2022-09-12T05:14:33.163Z,97768.03
2022-09-12T05:17:02.800Z,97773.16
2022-09-12T05:19:31.060Z,97766.13
2022-09-12T05:21:58.277Z,97766.13
2022-09-12T05:24:25.478Z,97772.38
2022-09-12T05:26:52.577Z,97769.94
2022-09-12T05:29:19.678Z,97766.44
2022-09-12T05:31:46.980Z,97765.63
2022-09-12T05:34:15.398Z,97777.34
2022-09-12T05:36:42.487Z,97777.56
2022-09-12T05:39:09.590Z,97779.97
2022-09-12T05:41:36.702Z,97783.25
2022-09-12T05:44:06.026Z,97783.19
2022-09-12T05:46:41.091Z,97785.28
2022-09-12T05:49:10.270Z,97785.38
2022-09-12T05:51:41.711Z,97788.59
2022-09-12T05:54:11.079Z,97789.41
2022-09-12T05:56:40.072Z,97795.63
2022-09-12T05:59:11.146Z,97790.19
2022-09-12T06:01:38.559Z,97794.53
2022-09-12T06:04:06.840Z,97790.72
2022-09-12T06:06:36.795Z,97792.13
2022-09-12T06:09:06.238Z,97794.31
2022-09-12T06:11:35.428Z,97790.81
2022-09-12T06:14:02.899Z,97788.91
2022-09-12T06:16:31.283Z,97791.00
2022-09-12T06:19:01.344Z,97788.00
2022-09-12T06:21:29.704Z,97801.53
2022-09-12T06:23:57.938Z,97800.75
2022-09-12T06:26:28.020Z,97803.22
2022-09-12T06:28:56.610Z,97799.44
2022-09-12T06:31:25.770Z,97798.53
2022-09-12T06:33:54.377Z,97799.28
2022-09-12T06:36:23.446Z,97807.59
2022-09-12T06:38:55.101Z,97806.31
2022-09-12T06:41:22.518Z,97804.41
2022-09-12T06:43:51.230Z,97800.00
2022-09-12T06:46:18.361Z,97804.22
2022-09-12T06:48:45.792Z,97806.44
2022-09-12T06:51:15.507Z,97806.94
2022-09-12T06:53:43.462Z,97807.22
2022-09-12T06:56:12.283Z,97812.63
2022-09-12T06:58:40.219Z,97811.56
2022-09-12T07:01:10.632Z,97803.16
2022-09-12T07:03:38.635Z,97804.22
2022-09-12T07:06:08.231Z,97806.66
2022-09-12T07:08:35.691Z,97802.91
2022-09-12T07:11:09.858Z,97809.63
2022-09-12T07:13:36.960Z,97804.63
2022-09-12T07:16:05.171Z,97799.94
2022-09-12T07:18:34.676Z,97806.94
2022-09-12T07:21:02.176Z,97806.44
2022-09-12T07:23:29.861Z,97807.63
2022-09-12T07:25:58.783Z,97809.31
2022-09-12T07:28:27.467Z,97803.97
2022-09-12T07:30:54.717Z,97807.56
2022-09-12T07:33:22.802Z,97812.16
2022-09-12T07:35:51.290Z,97807.91
2022-09-12T07:38:18.417Z,97810.59
2022-09-12T07:40:45.521Z,97806.38
2022-09-12T07:43:12.993Z,97812.59
2022-09-12T07:45:40.206Z,97808.09
2022-09-12T07:48:07.628Z,97814.31
2022-09-12T07:50:35.604Z,97805.22
2022-09-12T07:53:04.558Z,97820.41
2022-09-12T07:55:32.664Z,97820.72
2022-09-12T07:57:59.784Z,97814.00
2022-09-12T08:00:26.874Z,97822.00
2022-09-12T08:02:54.302Z,97818.41
2022-09-12T08:05:21.472Z,97823.06
2022-09-12T08:07:48.623Z,97817.38
2022-09-12T08:10:17.316Z,97819.28
2022-09-12T08:12:44.422Z,97829.06
2022-09-12T08:15:11.526Z,97829.66
2022-09-12T08:17:38.606Z,97828.25
2022-09-12T08:20:06.543Z,97829.94
2022-09-12T08:22:33.632Z,97830.44
2022-09-12T08:25:00.734Z,97830.72
2022-09-12T08:27:29.420Z,97840.22
2022-09-12T08:29:56.528Z,97848.91
2022-09-12T08:32:23.623Z,97837.88
2022-09-12T08:34:50.729Z,97840.34
2022-09-12T08:37:17.921Z,97842.81
2022-09-12T08:39:45.054Z,97846.06
2022-09-12T08:42:24.997Z,97842.03
2022-09-12T08:45:08.891Z,97847.19
2022-09-12T08:47:38.427Z,97839.88
2022-09-12T08:50:13.833Z,97834.97
2022-09-12T08:52:48.107Z,97839.81
2022-09-12T08:55:25.695Z,97842.28
2022-09-12T08:57:53.664Z,97833.31
2022-09-12T09:00:22.304Z,97840.56
2022-09-12T09:03:23.093Z,97829.44
2022-09-12T09:05:56.010Z,97832.16
2022-09-12T09:08:50.317Z,97841.59
2022-09-12T09:11:32.706Z,97833.66
2022-09-12T09:14:16.978Z,97824.00
2022-09-12T09:16:46.837Z,97830.50
2022-09-12T09:19:18.690Z,97829.94
2022-09-12T09:21:51.450Z,97828.03
2022-09-12T09:24:21.810Z,97831.25
2022-09-12T09:26:55.038Z,97834.25
2022-09-12T09:29:27.038Z,97826.69
2022-09-12T09:31:59.524Z,97824.53
2022-09-12T09:34:30.812Z,97830.22
2022-09-12T09:37:06.385Z,97828.31
2022-09-12T09:39:52.760Z,97827.81
2022-09-12T09:42:32.455Z,97828.59
2022-09-12T09:45:03.325Z,97822.09
2022-09-12T09:47:31.864Z,97824.28
2022-09-12T09:49:58.978Z,97825.91
2022-09-12T09:52:29.358Z,97821.06
2022-09-12T09:54:59.457Z,97821.06
2022-09-12T09:57:41.690Z,97819.19
2022-09-12T10:00:22.878Z,97825.09
2022-09-12T10:03:22.639Z,97824.28
2022-09-12T10:05:53.154Z,97822.41
2022-09-12T10:08:22.495Z,97821.81
2022-09-12T10:11:01.346Z,97814.00
2022-09-12T10:13:34.613Z,97807.22
2022-09-12T10:16:04.777Z,97817.22
2022-09-12T10:18:38.267Z,97815.03
2022-09-12T10:21:32.216Z,97816.91
2022-09-12T10:24:03.873Z,97814.75
2022-09-12T10:26:39.780Z,97814.50
2022-09-12T10:29:15.506Z,97812.63
2022-09-12T10:31:46.123Z,97815.84
2022-09-12T10:34:23.785Z,97807.22
2022-09-12T10:36:58.916Z,97814.22
2022-09-12T10:39:26.808Z,97799.09
2022-09-12T10:41:54.140Z,97808.59
2022-09-12T10:44:25.875Z,97809.94
2022-09-12T10:46:53.194Z,97809.34
2022-09-12T10:49:26.839Z,97799.69
2022-09-12T10:51:57.244Z,97806.38
2022-09-12T10:54:26.742Z,97799.63
2022-09-12T10:57:22.003Z,97799.03
2022-09-12T11:00:02.513Z,97802.84
2022-09-12T11:02:34.883Z,97796.63
2022-09-12T11:05:09.283Z,97797.94
2022-09-12T11:07:43.371Z,97793.34
2022-09-12T11:10:24.330Z,97790.06
2022-09-12T11:12:58.138Z,97776.84
2022-09-12T11:15:46.045Z,97775.44
2022-09-12T11:18:25.002Z,97772.75
2022-09-12T11:21:13.466Z,97770.03
2022-09-12T11:24:02.511Z,97759.22
2022-09-12T11:26:47.633Z,97766.03
2022-09-12T11:29:28.623Z,97762.22
2022-09-12T11:32:11.293Z,97749.53
2022-09-12T11:34:48.428Z,97750.31
2022-09-12T11:37:32.773Z,97754.94
2022-09-12T11:40:11.298Z,97758.38
2022-09-12T11:42:40.224Z,97747.25
2022-09-12T11:45:15.620Z,97750.69
2022-09-12T11:47:46.683Z,97752.66
2022-09-12T11:50:21.196Z,97747.56
2022-09-12T11:52:49.570Z,97739.63
2022-09-12T11:55:21.375Z,97749.09
2022-09-12T11:57:52.741Z,97738.34
2022-09-12T12:00:22.034Z,97739.63
2022-09-12T12:03:07.285Z,97732.06
2022-09-12T12:05:42.170Z,97732.59
2022-09-12T12:08:11.246Z,97738.00
2022-09-12T12:10:42.151Z,97737.69
2022-09-12T12:13:17.949Z,97739.81
2022-09-12T12:15:47.830Z,97733.09
2022-09-12T12:18:18.908Z,97726.22
2022-09-12T12:20:46.349Z,97727.81
2022-09-12T12:23:24.133Z,97727.81
2022-09-12T12:25:54.933Z,97722.13
2022-09-12T12:29:01.548Z,97716.13
2022-09-12T12:31:28.747Z,97715.31
2022-09-12T12:34:26.922Z,97712.31
2022-09-12T12:36:54.030Z,97709.03
2022-09-12T12:39:59.792Z,97712.28
2022-09-12T12:43:00.203Z,97706.78
2022-09-12T12:46:09.634Z,97706.22
2022-09-12T12:49:05.855Z,97703.72
2022-09-12T12:51:58.681Z,97702.59
2022-09-12T12:54:51.703Z,97705.31
2022-09-12T12:57:29.931Z,97688.28
2022-09-12T13:00:01.799Z,97698.53
2022-09-12T13:02:35.022Z,97693.63
2022-09-12T13:05:05.111Z,97697.41
2022-09-12T13:07:35.872Z,97686.31
2022-09-12T13:10:06.192Z,97681.19
2022-09-12T13:12:37.694Z,97683.38
2022-09-12T13:15:29.608Z,97681.47
2022-09-12T13:18:01.937Z,97676.06
2022-09-12T13:20:31.619Z,97669.56
2022-09-12T13:22:58.968Z,97670.06
2022-09-12T13:25:30.678Z,97666.56
2022-09-12T13:28:00.255Z,97660.53
2022-09-12T13:30:28.439Z,97658.84
2022-09-12T13:33:02.408Z,97661.06
2022-09-12T13:35:35.711Z,97643.44
2022-09-12T13:38:10.691Z,97650.16
2022-09-12T13:40:47.854Z,97641.53
2022-09-12T13:43:17.290Z,97645.94
2022-09-12T13:45:46.848Z,97641.59
2022-09-12T13:48:19.557Z,97644.81
2022-09-12T13:50:52.805Z,97638.81
2022-09-12T13:53:22.165Z,97646.34
2022-09-12T13:55:53.219Z,97645.25
2022-09-12T13:58:22.628Z,97645.53
2022-09-12T14:01:05.542Z,97639.13
2022-09-12T14:03:39.136Z,97638.69
2022-09-12T14:06:06.670Z,97637.69
2022-09-12T14:08:33.864Z,97632.66
2022-09-12T14:11:07.773Z,97640.09
2022-09-12T14:13:34.751Z,97631.25
2022-09-12T14:16:02.608Z,97619.06
2022-09-12T14:18:31.691Z,97621.44
2022-09-12T14:21:08.869Z,97623.94
2022-09-12T14:23:39.756Z,97624.25
2022-09-12T14:26:10.901Z,97616.44
2022-09-12T14:28:40.567Z,97611.53
2022-09-12T14:31:22.381Z,97613.16
2022-09-12T14:33:51.813Z,97612.09
2022-09-12T14:36:24.371Z,97610.97
2022-09-12T14:38:54.175Z,97601.88
2022-09-12T14:41:25.041Z,97598.88
2022-09-12T14:43:55.154Z,97595.06
2022-09-12T14:46:25.765Z,97602.50
2022-09-12T14:48:55.953Z,97595.06
2022-09-12T14:51:27.882Z,97608.88
2022-09-12T14:53:55.046Z,97603.69
2022-09-12T14:56:36.927Z,97599.13
2022-09-12T14:59:27.332Z,97587.25
2022-09-12T15:02:23.033Z,97585.38
2022-09-12T15:04:51.678Z,97594.00
2022-09-12T15:07:30.805Z,97594.25
2022-09-12T15:09:59.244Z,97590.69
2022-09-12T15:12:27.106Z,97589.50
2022-09-12T15:14:58.648Z,97594.03
2022-09-12T15:17:25.758Z,97592.44
2022-09-12T15:19:52.844Z,97593.47
2022-09-12T15:22:23.785Z,97599.66
2022-09-12T15:24:50.871Z,97591.78
2022-09-12T15:27:17.970Z,97592.34
2022-09-12T15:29:45.064Z,97592.00
2022-09-12T15:32:23.414Z,97589.56
2022-09-12T15:34:50.628Z,97586.06
2022-09-12T15:37:18.975Z,97587.94
2022-09-12T15:39:47.923Z,97582.53
2022-09-12T15:42:15.861Z,97583.38
2022-09-12T15:44:43.349Z,97589.56
2022-09-12T15:47:12.914Z,97582.66
2022-09-12T15:49:40.406Z,97577.13
2022-09-12T15:52:13.006Z,97575.13
2022-09-12T15:54:40.081Z,97579.28
2022-09-12T15:57:08.569Z,97573.81
2022-09-12T15:59:36.313Z,97572.41
2022-09-12T16:02:03.755Z,97561.69
2022-09-12T16:04:31.010Z,97562.41
2022-09-12T16:06:58.079Z,97562.09
2022-09-12T16:09:25.297Z,97558.03
2022-09-12T16:11:52.383Z,97559.91
2022-09-12T16:14:20.803Z,97559.63
2022-09-12T16:16:52.475Z,97556.13
2022-09-12T16:19:19.701Z,97562.25
2022-09-12T16:21:46.970Z,97568.47
2022-09-12T16:24:14.098Z,97559.78
2022-09-12T16:26:41.215Z,97554.88
2022-09-12T16:29:10.461Z,97546.97
2022-09-12T16:31:38.962Z,97548.78
2022-09-12T16:34:06.312Z,97546.16
2022-09-12T16:36:33.617Z,97550.75
2022-09-12T16:39:00.728Z,97551.34
2022-09-12T16:41:27.846Z,97551.16
2022-09-12T16:43:55.209Z,97537.41
2022-09-12T16:46:23.878Z,97542.81
2022-09-12T16:48:54.365Z,97548.22
2022-09-12T16:51:23.587Z,97537.50
2022-09-12T16:53:50.932Z,97539.31
2022-09-12T16:56:18.670Z,97544.19
2022-09-12T16:58:46.193Z,97541.50
2022-09-12T17:01:15.624Z,97547.41
2022-09-12T17:03:43.385Z,97534.56
2022-09-12T17:06:13.870Z,97551.00
2022-09-12T17:08:42.882Z,97550.50
2022-09-12T17:11:11.967Z,97547.50
2022-09-12T17:14:02.665Z,97541.09
2022-09-12T17:16:27.501Z,97537.56
2022-09-12T17:18:55.236Z,97531.47
2022-09-12T17:21:23.681Z,97532.53
2022-09-12T17:23:50.970Z,97538.53
2022-09-12T17:26:18.160Z,97533.94
2022-09-12T17:28:45.328Z,97531.06
2022-09-12T17:31:13.977Z,97523.09
2022-09-12T17:33:42.073Z,97530.47
2022-09-12T17:36:11.902Z,97527.00
2022-09-12T17:38:41.289Z,97533.53
2022-09-12T17:41:10.402Z,97534.66
2022-09-12T17:43:37.556Z,97540.09
2022-09-12T17:46:05.326Z,97533.97
2022-09-12T17:48:32.445Z,97536.47
2022-09-12T17:51:06.940Z,97543.34
2022-09-12T17:53:34.065Z,97544.97
2022-09-12T17:56:02.978Z,97545.66
2022-09-12T17:58:30.460Z,97543.50
2022-09-12T18:01:01.404Z,97550.78
2022-09-12T18:03:28.504Z,97545.16
2022-09-12T18:05:56.447Z,97545.16
2022-09-12T18:08:24.420Z,97543.56
2022-09-12T18:10:51.898Z,97540.06
2022-09-12T18:13:20.384Z,97538.44
2022-09-12T18:15:47.582Z,97549.47
2022-09-12T18:18:14.671Z,97547.59
2022-09-12T18:20:49.933Z,97541.00
2022-09-12T18:23:17.009Z,97543.03
2022-09-12T18:25:44.100Z,97542.88
2022-09-12T18:28:11.183Z,97534.06
2022-09-12T18:30:40.656Z,97540.69
2022-09-12T18:33:07.760Z,97543.00
2022-09-12T18:35:37.621Z,97532.38
2022-09-12T18:38:04.756Z,97535.78
2022-09-12T18:40:31.846Z,97536.41
2022-09-12T18:42:58.926Z,97532.88
2022-09-12T18:45:27.357Z,97538.78
2022-09-12T18:47:56.129Z,97530.38
2022-09-12T18:50:23.647Z,97541.41
2022-09-12T18:52:51.814Z,97537.13
2022-09-12T18:55:19.030Z,97538.00
2022-09-12T18:57:46.306Z,97537.19
2022-09-12T19:00:14.159Z,97550.22
2022-09-12T19:02:41.242Z,97545.13
2022-09-12T19:05:10.329Z,97547.91
2022-09-12T19:07:37.413Z,97544.41
2022-09-12T19:10:05.180Z,97539.19
2022-09-12T19:12:32.303Z,97542.97
2022-09-12T19:14:59.490Z,97538.63
2022-09-12T19:17:26.581Z,97537.09
2022-09-12T19:19:53.679Z,97544.41
2022-09-12T19:22:22.301Z,97547.13
2022-09-12T19:24:49.424Z,97542.63
2022-09-12T19:27:16.533Z,97547.31
2022-09-12T19:29:43.608Z,97544.22
2022-09-12T19:32:10.731Z,97542.97
2022-09-12T19:34:38.273Z,97539.78
2022-09-12T19:37:05.388Z,97536.84
2022-09-12T19:39:33.898Z,97531.25
2022-09-12T19:42:01.279Z,97532.84
2022-09-12T19:44:30.293Z,97534.97
2022-09-12T19:46:57.406Z,97542.88
2022-09-12T19:49:24.490Z,97536.97
2022-09-12T19:51:51.622Z,97537.53
2022-09-12T19:54:18.689Z,97531.34
2022-09-12T19:56:47.223Z,97525.44
2022-09-12T19:59:14.323Z,97530.53
2022-09-12T20:01:41.568Z,97530.25
2022-09-12T20:04:08.737Z,97529.44
2022-09-12T20:06:35.829Z,97527.63
2022-09-12T20:09:03.021Z,97520.59
2022-09-12T20:11:30.343Z,97530.84
2022-09-12T20:13:58.768Z,97523.31
2022-09-12T20:16:26.964Z,97524.63
2022-09-12T20:18:56.043Z,97521.94
2022-09-12T20:21:25.368Z,97520.38
2022-09-12T20:23:52.641Z,97521.41
2022-09-12T20:26:19.747Z,97532.00
2022-09-12T20:28:47.263Z,97515.19
2022-09-12T20:31:16.830Z,97518.09
2022-09-12T20:33:47.534Z,97519.00
2022-09-12T20:36:19.225Z,97518.72
2022-09-12T20:38:51.033Z,97517.09
2022-09-12T20:41:19.606Z,97520.09
2022-09-12T20:43:49.423Z,97518.00
2022-09-12T20:46:21.661Z,97508.47
2022-09-12T20:48:49.929Z,97513.16
2022-09-12T20:51:17.167Z,97511.06
2022-09-12T20:53:44.274Z,97508.72
2022-09-12T20:56:11.517Z,97514.63
2022-09-12T20:58:43.523Z,97504.34
2022-09-12T21:01:13.366Z,97508.72
2022-09-12T21:03:42.970Z,97506.03
2022-09-12T21:06:11.391Z,97518.13
2022-09-12T21:08:38.823Z,97525.97
2022-09-12T21:11:06.703Z,97525.75
2022-09-12T21:13:33.972Z,97518.97
2022-09-12T21:16:02.488Z,97523.25
2022-09-12T21:18:30.556Z,97518.34
2022-09-12T21:20:59.078Z,97514.84
2022-09-12T21:23:27.411Z,97514.84
2022-09-12T21:25:54.775Z,97518.34
2022-09-12T21:28:22.359Z,97519.47
2022-09-12T21:30:50.459Z,97521.56
2022-09-12T21:33:19.081Z,97522.38
2022-09-12T21:35:46.948Z,97521.56
2022-09-12T21:38:16.336Z,97514.06
2022-09-12T21:40:43.704Z,97519.25
2022-09-12T21:43:12.971Z,97511.38
2022-09-12T21:45:40.786Z,97516.47
2022-09-12T21:48:08.109Z,97517.28
2022-09-12T21:50:35.431Z,97516.75
2022-09-12T21:53:02.652Z,97514.34
2022-09-12T21:55:31.086Z,97511.38
2022-09-12T21:57:58.276Z,97513.47
2022-09-12T22:00:25.896Z,97515.88
2022-09-12T22:02:52.993Z,97513.66
2022-09-12T22:05:20.098Z,97519.53
2022-09-12T22:07:47.206Z,97520.13
2022-09-12T22:10:14.314Z,97510.31
2022-09-12T22:12:46.026Z,97510.22
2022-09-12T22:15:39.090Z,97515.63
2022-09-12T22:18:01.424Z,97516.28
2022-09-12T22:20:28.539Z,97513.66
2022-09-12T22:22:55.601Z,97516.06
2022-09-12T22:25:22.798Z,97518.03
2022-09-12T22:27:51.580Z,97506.44
2022-09-12T22:30:19.241Z,97506.44
2022-09-12T22:32:46.403Z,97497.69
2022-09-12T22:35:13.521Z,97506.53
2022-09-12T22:37:40.634Z,97501.84
2022-09-12T22:40:09.157Z,97499.72
2022-09-12T22:42:36.323Z,97504.94
2022-09-12T22:45:06.142Z,97503.25
2022-09-12T22:47:33.512Z,97500.84
2022-09-12T22:50:00.622Z,97504.34
2022-09-12T22:52:27.779Z,97495.44
2022-09-12T22:54:54.857Z,97485.19
2022-09-12T22:57:21.946Z,97485.31
2022-09-12T22:59:49.032Z,97484.47
2022-09-12T23:02:17.562Z,97492.50
2022-09-12T23:04:44.648Z,97473.66
2022-09-12T23:07:11.761Z,97480.41
2022-09-12T23:09:38.830Z,97476.88
2022-09-12T23:12:06.189Z,97479.28
2022-09-12T23:14:33.274Z,97469.88
2022-09-12T23:17:00.355Z,97466.28
2022-09-12T23:19:28.858Z,97464.19
2022-09-12T23:21:55.931Z,97464.69
2022-09-12T23:24:23.016Z,97460.84
2022-09-12T23:26:50.090Z,97466.78
2022-09-12T23:29:17.973Z,97459.78
2022-09-12T23:31:45.086Z,97457.88
2022-09-12T23:34:12.184Z,97455.94
2022-09-12T23:36:40.586Z,97452.97
2022-09-12T23:39:09.002Z,97447.84
2022-09-12T23:41:36.123Z,97450.25
2022-09-12T23:44:03.257Z,97437.34
2022-09-12T23:46:30.370Z,97435.22
2022-09-12T23:48:57.454Z,97434.94
2022-09-12T23:51:24.554Z,97433.63
2022-09-12T23:53:52.962Z,97430.13
2022-09-12T23:56:20.071Z,97442.03
2022-09-12T23:58:47.367Z,97442.53
